createdAt,value
2019-02-22T00:01:37.576Z,36.10
2019-02-22T00:06:41.503Z,36.97
2019-02-22T00:11:45.423Z,36.13
2019-02-22T00:16:49.279Z,35.80
2019-02-22T00:21:53.214Z,36.37
2019-02-22T00:26:57.095Z,37.20
2019-02-22T00:32:00.949Z,37.20
2019-02-22T00:37:05.021Z,35.40
2019-02-22T00:42:08.975Z,34.73
2019-02-22T00:47:12.839Z,35.17
2019-02-22T00:52:16.759Z,34.80
2019-02-22T00:57:20.636Z,34.50
2019-02-22T01:02:24.492Z,33.37
2019-02-22T01:07:28.351Z,33.80
2019-02-22T01:12:32.276Z,36.97
2019-02-22T01:17:36.139Z,36.00
2019-02-22T01:22:40.067Z,34.47
2019-02-22T01:27:43.955Z,36.60
2019-02-22T01:32:47.815Z,34.10
2019-02-22T01:37:51.665Z,35.10
2019-02-22T01:42:55.692Z,34.77
2019-02-22T01:47:59.560Z,34.27
2019-02-22T01:53:03.411Z,35.37
2019-02-22T01:58:07.263Z,33.73
2019-02-22T02:03:11.264Z,33.87
2019-02-22T02:08:15.127Z,34.17
2019-02-22T02:13:19.076Z,34.13
2019-02-22T02:18:22.928Z,32.47
2019-02-22T02:23:26.883Z,34.33
2019-02-22T02:28:30.835Z,31.37
2019-02-22T02:33:34.695Z,32.43
2019-02-22T02:38:38.633Z,31.90
2019-02-22T02:43:42.680Z,31.07
2019-02-22T02:48:46.702Z,30.70
2019-02-22T02:53:50.652Z,31.80
2019-02-22T02:58:54.536Z,32.33
2019-02-22T03:03:58.470Z,33.40
2019-02-22T03:09:03.326Z,32.50
2019-02-22T03:14:07.180Z,32.93
2019-02-22T03:19:11.355Z,31.40
2019-02-22T03:24:17.359Z,32.70
2019-02-22T03:29:21.219Z,32.70
2019-02-22T03:34:25.111Z,27.37
2019-02-22T03:39:29.027Z,29.53
2019-02-22T03:44:33.038Z,29.57
2019-02-22T03:49:36.927Z,29.03
2019-02-22T03:54:40.945Z,28.40
2019-02-22T03:59:44.965Z,31.13
2019-02-22T04:04:48.898Z,28.50
2019-02-22T04:09:52.859Z,28.80
2019-02-22T04:14:56.860Z,26.90
2019-02-22T04:20:00.732Z,30.13
2019-02-22T04:25:04.820Z,28.30
2019-02-22T04:30:09.157Z,28.30
2019-02-22T04:35:13.136Z,26.73
2019-02-22T04:40:17.136Z,27.10
2019-02-22T04:45:21.410Z,24.13
2019-02-22T04:50:25.433Z,27.07
2019-02-22T04:55:29.491Z,26.53
2019-02-22T05:00:33.483Z,26.50
2019-02-22T05:05:37.440Z,26.03
2019-02-22T05:10:41.386Z,24.70
2019-02-22T05:15:45.334Z,23.90
2019-02-22T05:20:49.227Z,23.70
2019-02-22T05:25:54.482Z,23.30
2019-02-22T05:30:58.471Z,22.73
2019-02-22T05:36:02.615Z,23.40
2019-02-22T05:41:07.316Z,22.63
2019-02-22T05:46:11.234Z,21.80
2019-02-22T05:51:15.314Z,20.50
2019-02-22T05:56:19.292Z,21.50
2019-02-22T06:01:23.177Z,22.63
2019-02-22T06:06:27.079Z,20.43
2019-02-22T06:11:31.035Z,22.57
2019-02-22T06:16:36.641Z,20.87
2019-02-22T06:21:40.672Z,19.40
2019-02-22T06:26:44.607Z,18.80
2019-02-22T06:31:48.493Z,19.67
2019-02-22T06:37:01.271Z,20.23
2019-02-22T06:41:58.083Z,18.60
2019-02-22T06:47:01.964Z,18.43
2019-02-22T06:52:06.122Z,17.73
2019-02-22T06:57:10.478Z,18.60
2019-02-22T07:02:14.393Z,18.70
2019-02-22T07:07:18.383Z,19.50
2019-02-22T07:12:28.182Z,17.10
2019-02-22T07:17:32.059Z,17.80
2019-02-22T07:22:36.036Z,16.17
2019-02-22T07:27:39.924Z,18.70
2019-02-22T07:32:43.839Z,18.53
2019-02-22T07:37:47.769Z,19.37
2019-02-22T07:42:51.672Z,18.33
2019-02-22T07:47:55.651Z,18.20
2019-02-22T07:53:00.026Z,18.17
2019-02-22T07:58:03.983Z,18.20
2019-02-22T08:03:07.962Z,20.40
2019-02-22T08:08:11.875Z,17.47
2019-02-22T08:13:19.843Z,18.97
2019-02-22T08:18:21.603Z,18.37
2019-02-22T08:23:25.568Z,16.50
2019-02-22T08:28:29.600Z,19.50
2019-02-22T08:33:33.493Z,19.30
2019-02-22T08:38:37.519Z,17.63
2019-02-22T08:43:41.495Z,18.50
2019-02-22T08:48:45.404Z,18.70
2019-02-22T08:53:49.303Z,20.10
2019-02-22T08:58:53.263Z,17.77
2019-02-22T09:03:57.278Z,18.07
2019-02-22T09:09:01.340Z,20.10
2019-02-22T09:14:05.313Z,19.37
2019-02-22T09:19:09.365Z,19.53
2019-02-22T09:24:13.510Z,20.30
2019-02-22T09:29:17.794Z,18.60
2019-02-22T09:34:21.704Z,20.00
2019-02-22T09:39:25.615Z,20.83
2019-02-22T09:44:29.599Z,20.40
2019-02-22T09:49:33.484Z,22.57
2019-02-22T09:54:37.525Z,22.40
2019-02-22T09:59:42.244Z,25.40
2019-02-22T10:04:54.444Z,22.60
2019-02-22T10:09:52.884Z,24.10
2019-02-22T10:14:56.956Z,24.80
2019-02-22T10:20:03.982Z,24.40
2019-02-22T10:25:10.878Z,31.97
2019-02-22T10:30:17.142Z,27.40
2019-02-22T10:35:23.207Z,24.07
2019-02-22T10:40:27.345Z,24.20
2019-02-22T10:45:31.495Z,28.63
2019-02-22T10:50:37.955Z,30.33
2019-02-22T10:55:43.152Z,28.20
2019-02-22T11:00:47.183Z,31.50
2019-02-22T11:05:51.144Z,32.87
2019-02-22T11:10:55.218Z,28.00
2019-02-22T11:15:59.195Z,25.20
2019-02-22T11:21:03.161Z,29.67
2019-02-22T11:26:07.646Z,28.00
2019-02-22T11:31:11.623Z,23.37
2019-02-22T11:36:15.530Z,22.60
2019-02-22T11:41:19.443Z,24.60
2019-02-22T11:46:24.291Z,24.90
2019-02-22T11:51:28.259Z,26.13
2019-02-22T11:56:32.315Z,28.00
2019-02-22T12:01:36.335Z,26.07
2019-02-22T12:06:40.251Z,31.70
2019-02-22T12:11:44.335Z,30.10
2019-02-22T12:16:48.274Z,25.93
2019-02-22T12:21:52.179Z,30.33
2019-02-22T12:26:56.161Z,29.13
2019-02-22T12:32:00.191Z,26.90
2019-02-22T12:37:04.208Z,27.83
2019-02-22T12:42:08.127Z,30.17
2019-02-22T12:47:12.300Z,27.23
2019-02-22T12:52:16.259Z,32.20
2019-02-22T12:57:20.333Z,23.27
2019-02-22T13:02:24.556Z,28.60
2019-02-22T13:07:28.459Z,27.40
2019-02-22T13:12:32.439Z,26.67
2019-02-22T13:17:36.339Z,28.20
2019-02-22T13:22:40.359Z,26.40
2019-02-22T13:27:44.359Z,27.43
2019-02-22T13:32:48.412Z,26.87
2019-02-22T13:37:52.529Z,26.27
2019-02-22T13:42:56.503Z,28.00
2019-02-22T13:48:00.789Z,30.87
2019-02-22T13:53:04.907Z,26.87
2019-02-22T13:58:08.988Z,25.43
2019-02-22T14:03:12.912Z,20.00
2019-02-22T14:08:16.852Z,18.80
2019-02-22T14:13:21.023Z,19.37
2019-02-22T14:18:24.919Z,19.67
2019-02-22T14:23:29.413Z,20.47
2019-02-22T14:28:33.395Z,18.20
2019-02-22T14:33:37.291Z,19.90
2019-02-22T14:38:41.206Z,19.13
2019-02-22T14:43:45.311Z,19.60
2019-02-22T14:48:49.352Z,18.57
2019-02-22T14:53:53.505Z,17.50
2019-02-22T14:58:57.559Z,18.20
2019-02-22T15:04:01.567Z,15.70
2019-02-22T15:09:06.965Z,14.50
2019-02-22T15:14:10.935Z,16.40
2019-02-22T15:19:15.254Z,16.63
2019-02-22T15:24:19.298Z,17.07
2019-02-22T15:29:23.512Z,15.50
2019-02-22T15:34:27.502Z,14.70
2019-02-22T15:39:31.466Z,16.23
2019-02-22T15:44:35.532Z,14.00
2019-02-22T15:49:39.436Z,13.23
2019-02-22T15:54:43.999Z,11.80
2019-02-22T15:59:47.997Z,10.50
2019-02-22T16:05:14.722Z,10.13
2019-02-22T16:10:18.783Z,13.07
2019-02-22T16:15:22.814Z,12.10
2019-02-22T16:20:26.852Z,12.80
2019-02-22T16:25:30.809Z,12.43
2019-02-22T16:30:36.654Z,11.60
2019-02-22T16:35:40.612Z,10.70
2019-02-22T16:40:44.571Z,11.67
2019-02-22T16:45:48.475Z,12.17
2019-02-22T16:50:52.519Z,9.47
2019-02-22T16:55:56.611Z,11.40
2019-02-22T17:01:00.662Z,11.77
2019-02-22T17:06:04.816Z,9.83
2019-02-22T17:11:08.896Z,10.57
2019-02-22T17:16:12.964Z,12.90
2019-02-22T17:21:17.030Z,12.33
2019-02-22T17:26:20.926Z,12.93
2019-02-22T17:31:24.981Z,14.03
2019-02-22T17:36:28.991Z,14.07
2019-02-22T17:41:32.939Z,14.17
2019-02-22T17:46:36.843Z,11.77
2019-02-22T17:51:40.821Z,13.00
2019-02-22T17:56:44.784Z,13.47
2019-02-22T18:01:48.756Z,13.60
2019-02-22T18:06:52.739Z,12.20
2019-02-22T18:11:56.728Z,11.07
2019-02-22T18:17:08.019Z,9.30
2019-02-22T18:22:06.503Z,11.57
2019-02-22T18:27:10.552Z,12.17
2019-02-22T18:32:14.497Z,12.70
2019-02-22T18:37:18.427Z,12.57
2019-02-22T18:42:22.422Z,11.23
2019-02-22T18:47:26.435Z,13.00
2019-02-22T18:52:30.408Z,11.87
2019-02-22T18:57:34.360Z,13.10
2019-02-22T19:02:38.335Z,14.50
2019-02-22T19:07:42.306Z,13.80
2019-02-22T19:12:46.417Z,12.90
2019-02-22T19:17:50.416Z,17.10
2019-02-22T19:22:54.640Z,17.23
2019-02-22T19:27:58.578Z,13.93
2019-02-22T19:33:02.551Z,14.47
2019-02-22T19:38:06.523Z,15.10
2019-02-22T19:43:10.527Z,15.93
2019-02-22T19:48:14.415Z,15.87
2019-02-22T19:53:18.399Z,14.37
2019-02-22T19:58:22.292Z,15.47
2019-02-22T20:03:26.221Z,15.60
2019-02-22T20:08:30.238Z,16.50
2019-02-22T20:13:34.178Z,15.37
2019-02-22T20:18:38.154Z,16.00
2019-02-22T20:23:42.050Z,16.70
2019-02-22T20:28:46.046Z,16.30
2019-02-22T20:33:49.931Z,16.97
2019-02-22T20:38:53.899Z,16.90
2019-02-22T20:43:57.819Z,17.93
2019-02-22T20:49:02.315Z,17.97
2019-02-22T20:54:06.213Z,17.77
2019-02-22T20:59:10.253Z,17.63
2019-02-22T21:04:14.170Z,17.67
2019-02-22T21:09:18.455Z,17.20
2019-02-22T21:14:22.503Z,17.03
2019-02-22T21:19:26.478Z,18.23
2019-02-22T21:24:30.411Z,18.90
2019-02-22T21:29:34.339Z,17.23
2019-02-22T21:34:38.326Z,16.73
2019-02-22T21:39:42.304Z,17.13
2019-02-22T21:44:46.447Z,17.43
2019-02-22T21:49:50.431Z,17.47
2019-02-22T21:54:54.295Z,17.10
2019-02-22T21:59:58.179Z,17.50
2019-02-22T22:05:02.134Z,15.50
2019-02-22T22:10:06.219Z,14.30
2019-02-22T22:15:10.814Z,15.33
2019-02-22T22:20:14.896Z,13.57
2019-02-22T22:25:18.851Z,14.07
2019-02-22T22:30:22.722Z,13.07
2019-02-22T22:35:26.682Z,12.50
2019-02-22T22:40:30.559Z,11.97
2019-02-22T22:45:34.576Z,12.90
2019-02-22T22:50:38.755Z,10.43
2019-02-22T22:55:42.695Z,12.23
2019-02-22T23:01:08.156Z,9.63
2019-02-22T23:06:14.407Z,11.73
2019-02-22T23:11:18.619Z,11.30
2019-02-22T23:16:22.486Z,12.53
2019-02-22T23:21:26.591Z,11.50
2019-02-22T23:26:30.655Z,10.57
2019-02-22T23:31:34.527Z,13.33
2019-02-22T23:36:38.399Z,13.57
2019-02-22T23:41:42.523Z,14.23
2019-02-22T23:46:46.400Z,14.83
2019-02-22T23:51:50.294Z,14.63
2019-02-22T23:56:54.188Z,15.70
